createdAt,value
2023-05-21T00:00:29.926Z,74.78
2023-05-21T00:02:59.486Z,74.90
2023-05-21T00:05:26.782Z,74.40
2023-05-21T00:07:55.070Z,74.65
2023-05-21T00:10:22.511Z,74.51
2023-05-21T00:12:49.679Z,73.58
2023-05-21T00:15:16.738Z,72.60
2023-05-21T00:17:44.746Z,72.29
2023-05-21T00:20:12.987Z,72.67
2023-05-21T00:22:42.542Z,73.13
2023-05-21T00:25:11.526Z,71.63
2023-05-21T00:27:38.669Z,72.05
2023-05-21T00:30:06.728Z,72.48
2023-05-21T00:32:33.863Z,72.33
2023-05-21T00:35:00.916Z,71.96
2023-05-21T00:37:29.963Z,72.09
2023-05-21T00:39:58.273Z,72.46
2023-05-21T00:42:31.524Z,73.92
2023-05-21T00:44:59.089Z,73.88
2023-05-21T00:47:29.791Z,73.97
2023-05-21T00:49:57.674Z,73.68
2023-05-21T00:52:27.698Z,72.40
2023-05-21T00:54:55.400Z,72.77
2023-05-21T00:57:27.406Z,71.99
2023-05-21T00:59:54.780Z,72.91
2023-05-21T01:02:24.558Z,72.04
2023-05-21T01:04:56.078Z,73.25
2023-05-21T01:07:23.486Z,73.89
2023-05-21T01:09:50.726Z,73.20
2023-05-21T01:12:19.174Z,73.03
2023-05-21T01:14:46.438Z,73.11
2023-05-21T01:17:14.014Z,72.98
2023-05-21T01:19:42.896Z,72.69
2023-05-21T01:22:15.067Z,72.56
2023-05-21T01:24:47.808Z,72.71
2023-05-21T01:27:14.820Z,72.15
2023-05-21T01:29:41.788Z,75.00
2023-05-21T01:32:18.547Z,75.13
2023-05-21T01:34:54.120Z,75.13
2023-05-21T01:37:48.237Z,75.50
2023-05-21T01:40:38.995Z,75.12
2023-05-21T01:43:07.266Z,74.68
2023-05-21T01:45:38.503Z,74.74
2023-05-21T01:48:07.781Z,74.97
2023-05-21T01:50:37.490Z,75.00
2023-05-21T01:53:06.140Z,73.75
2023-05-21T01:55:34.108Z,74.15
2023-05-21T01:58:02.449Z,73.93
2023-05-21T02:00:32.514Z,74.40
2023-05-21T02:02:59.912Z,74.74
2023-05-21T02:05:27.128Z,74.11
2023-05-21T02:07:55.091Z,73.92
2023-05-21T02:10:23.176Z,74.84
2023-05-21T02:12:50.209Z,73.64
2023-05-21T02:15:20.216Z,74.38
2023-05-21T02:17:47.511Z,73.79
2023-05-21T02:20:18.120Z,73.28
2023-05-21T02:22:47.427Z,73.95
2023-05-21T02:25:17.317Z,73.84
2023-05-21T02:27:44.851Z,73.67
2023-05-21T02:30:17.903Z,74.10
2023-05-21T02:32:45.300Z,74.56
2023-05-21T02:35:13.819Z,74.45
2023-05-21T02:37:41.444Z,74.27
2023-05-21T02:40:10.393Z,74.86
2023-05-21T02:42:40.196Z,75.43
2023-05-21T02:45:11.957Z,74.59
2023-05-21T02:47:41.690Z,74.27
2023-05-21T02:50:09.946Z,74.89
2023-05-21T02:52:44.286Z,75.36
2023-05-21T02:55:11.419Z,75.38
2023-05-21T02:57:38.416Z,74.89
2023-05-21T03:00:06.335Z,74.83
2023-05-21T03:02:34.582Z,75.12
2023-05-21T03:05:01.842Z,74.97
2023-05-21T03:07:28.887Z,74.15
2023-05-21T03:09:55.941Z,73.86
2023-05-21T03:12:23.043Z,74.92
2023-05-21T03:14:51.531Z,75.48
2023-05-21T03:17:20.781Z,74.01
2023-05-21T03:19:49.283Z,74.58
2023-05-21T03:22:16.937Z,74.53
2023-05-21T03:24:45.352Z,74.37
2023-05-21T03:27:13.702Z,74.90
2023-05-21T03:29:40.849Z,75.28
2023-05-21T03:32:08.927Z,75.13
2023-05-21T03:34:36.117Z,74.72
2023-05-21T03:37:03.619Z,74.56
2023-05-21T03:39:32.199Z,73.53
2023-05-21T03:41:59.858Z,73.55
2023-05-21T03:44:42.022Z,74.24
2023-05-21T03:47:32.134Z,74.01
2023-05-21T03:50:01.491Z,73.32
2023-05-21T03:52:28.746Z,73.70
2023-05-21T03:54:56.215Z,72.46
2023-05-21T03:57:23.310Z,72.79
2023-05-21T03:59:50.470Z,73.84
2023-05-21T04:02:17.579Z,73.21
2023-05-21T04:04:45.816Z,73.96
2023-05-21T04:07:15.645Z,74.04
2023-05-21T04:09:42.748Z,72.67
2023-05-21T04:12:09.922Z,72.73
2023-05-21T04:14:37.940Z,72.94
2023-05-21T04:17:05.585Z,72.60
2023-05-21T04:19:33.524Z,74.32
2023-05-21T04:22:01.975Z,73.39
2023-05-21T04:24:29.841Z,72.73
2023-05-21T04:27:11.127Z,73.79
2023-05-21T04:29:42.720Z,74.14
2023-05-21T04:32:11.827Z,73.01
2023-05-21T04:34:40.248Z,72.29
2023-05-21T04:37:07.209Z,73.90
2023-05-21T04:39:34.933Z,74.95
2023-05-21T04:42:03.453Z,73.09
2023-05-21T04:44:30.830Z,72.66
2023-05-21T04:47:00.740Z,72.33
2023-05-21T04:49:28.024Z,71.59
2023-05-21T04:51:55.291Z,71.14
2023-05-21T04:54:22.823Z,70.84
2023-05-21T04:56:50.693Z,70.64
2023-05-21T04:59:18.820Z,71.42
2023-05-21T05:01:46.589Z,70.94
2023-05-21T05:04:13.758Z,71.50
2023-05-21T05:06:41.312Z,71.45
2023-05-21T05:09:08.907Z,70.14
2023-05-21T05:11:36.339Z,70.95
2023-05-21T05:14:04.348Z,71.49
2023-05-21T05:16:31.526Z,71.03
2023-05-21T05:19:01.616Z,72.03
2023-05-21T05:21:29.362Z,71.92
2023-05-21T05:23:56.437Z,71.86
2023-05-21T05:26:27.478Z,70.95
2023-05-21T05:28:55.261Z,72.01
2023-05-21T05:31:22.475Z,72.50
2023-05-21T05:33:49.947Z,72.11
2023-05-21T05:36:17.341Z,71.03
2023-05-21T05:38:44.790Z,71.24
2023-05-21T05:41:12.079Z,69.99
2023-05-21T05:43:39.730Z,71.61
2023-05-21T05:46:06.999Z,72.76
2023-05-21T05:48:34.239Z,73.07
2023-05-21T05:51:02.230Z,73.32
2023-05-21T05:53:32.194Z,73.50
2023-05-21T05:56:00.403Z,74.29
2023-05-21T05:58:31.404Z,74.71
2023-05-21T06:01:08.766Z,74.73
2023-05-21T06:03:36.332Z,72.78
2023-05-21T06:06:11.933Z,74.21
2023-05-21T06:08:40.790Z,75.34
2023-05-21T06:11:08.024Z,74.16
2023-05-21T06:13:35.232Z,74.20
2023-05-21T06:16:04.416Z,74.11
2023-05-21T06:18:31.631Z,74.31
2023-05-21T06:20:59.491Z,75.03
2023-05-21T06:23:27.565Z,73.01
2023-05-21T06:25:55.255Z,74.18
2023-05-21T06:28:22.532Z,74.80
2023-05-21T06:30:50.265Z,75.33
2023-05-21T06:33:17.556Z,76.95
2023-05-21T06:35:44.802Z,76.16
2023-05-21T06:38:12.498Z,74.53
2023-05-21T06:40:39.707Z,75.54
2023-05-21T06:43:09.928Z,76.23
2023-05-21T06:45:37.407Z,76.74
2023-05-21T06:48:17.701Z,76.01
2023-05-21T06:50:46.321Z,78.29
2023-05-21T06:53:16.627Z,78.53
2023-05-21T06:55:45.671Z,79.44
2023-05-21T06:58:31.491Z,78.18
2023-05-21T07:00:59.958Z,78.28
2023-05-21T07:03:28.164Z,79.14
2023-05-21T07:05:55.550Z,78.75
2023-05-21T07:08:22.872Z,77.73
2023-05-21T07:10:51.013Z,78.44
2023-05-21T07:13:18.578Z,78.50
2023-05-21T07:15:47.510Z,78.93
2023-05-21T07:18:14.701Z,79.20
2023-05-21T07:20:41.806Z,77.71
2023-05-21T07:23:12.450Z,79.28
2023-05-21T07:25:39.563Z,79.53
2023-05-21T07:28:06.867Z,79.53
2023-05-21T07:30:35.553Z,77.15
2023-05-21T07:33:09.905Z,77.15
2023-05-21T07:35:37.308Z,78.29
2023-05-21T07:38:04.664Z,78.10
2023-05-21T07:40:32.003Z,78.82
2023-05-21T07:42:59.202Z,79.72
2023-05-21T07:45:29.414Z,79.91
2023-05-21T07:47:56.746Z,76.53
2023-05-21T07:50:25.608Z,76.99
2023-05-21T07:52:53.137Z,76.35
2023-05-21T07:55:23.854Z,77.25
2023-05-21T07:57:52.580Z,75.05
2023-05-21T08:00:27.622Z,77.19
2023-05-21T08:02:57.523Z,78.25
2023-05-21T08:05:25.816Z,75.60
2023-05-21T08:07:53.096Z,75.95
2023-05-21T08:10:21.324Z,76.58
2023-05-21T08:12:51.271Z,77.28
2023-05-21T08:15:19.037Z,76.77
2023-05-21T08:17:46.520Z,76.01
2023-05-21T08:20:14.623Z,75.81
2023-05-21T08:22:43.919Z,77.22
2023-05-21T08:25:13.131Z,77.55
2023-05-21T08:27:40.301Z,76.11
2023-05-21T08:30:08.307Z,76.79
2023-05-21T08:32:35.569Z,77.30
2023-05-21T08:35:04.740Z,77.34
2023-05-21T08:37:46.777Z,77.68
2023-05-21T08:40:25.335Z,78.40
2023-05-21T08:42:52.819Z,78.23
2023-05-21T08:45:27.902Z,77.67
2023-05-21T08:47:59.885Z,79.01
2023-05-21T08:50:32.022Z,79.22
2023-05-21T08:53:07.559Z,76.13
2023-05-21T08:55:43.974Z,77.56
2023-05-21T08:58:11.477Z,76.37
2023-05-21T09:00:38.616Z,76.15
2023-05-21T09:03:11.790Z,76.95
2023-05-21T09:05:45.163Z,77.93
2023-05-21T09:08:19.636Z,79.48
2023-05-21T09:11:02.397Z,79.26
2023-05-21T09:13:38.862Z,77.35
2023-05-21T09:16:12.747Z,76.55
2023-05-21T09:18:39.873Z,77.25
2023-05-21T09:21:31.489Z,77.51
2023-05-21T09:24:04.244Z,77.18
2023-05-21T09:26:31.783Z,76.53
2023-05-21T09:29:03.446Z,77.85
2023-05-21T09:31:30.873Z,77.45
2023-05-21T09:33:58.168Z,76.54
2023-05-21T09:36:27.305Z,77.38
2023-05-21T09:39:00.119Z,76.90
2023-05-21T09:42:08.206Z,78.44
2023-05-21T09:44:35.873Z,78.25
2023-05-21T09:47:03.378Z,78.76
2023-05-21T09:49:31.496Z,78.81
2023-05-21T09:52:00.351Z,78.96
2023-05-21T09:54:32.838Z,78.33
2023-05-21T09:57:08.065Z,79.06
2023-05-21T09:59:41.757Z,79.44
2023-05-21T10:02:21.679Z,79.95
2023-05-21T10:04:52.134Z,76.97
2023-05-21T10:07:27.382Z,77.84
2023-05-21T10:09:58.557Z,75.52
2023-05-21T10:12:27.861Z,77.93
2023-05-21T10:15:03.713Z,77.76
2023-05-21T10:17:31.236Z,78.26
2023-05-21T10:20:00.857Z,77.14
2023-05-21T10:22:28.879Z,74.84
2023-05-21T10:24:57.861Z,77.94
2023-05-21T10:27:25.372Z,76.61
2023-05-21T10:29:56.487Z,80.35
2023-05-21T10:32:26.809Z,79.09
2023-05-21T10:34:54.748Z,76.64
2023-05-21T10:37:28.666Z,77.02
2023-05-21T10:39:56.496Z,77.44
2023-05-21T10:42:32.550Z,78.51
2023-05-21T10:45:18.492Z,76.47
2023-05-21T10:48:03.633Z,76.19
2023-05-21T10:50:49.250Z,77.26
2023-05-21T10:53:53.179Z,77.08
2023-05-21T10:57:10.081Z,74.25
2023-05-21T10:59:46.340Z,71.94
2023-05-21T11:02:19.720Z,75.27
2023-05-21T11:04:49.437Z,75.00
2023-05-21T11:07:24.749Z,75.71
2023-05-21T11:09:51.910Z,74.75
2023-05-21T11:12:23.317Z,76.35
2023-05-21T11:14:58.054Z,74.13
2023-05-21T11:17:42.197Z,74.90
2023-05-21T11:20:14.111Z,75.80
2023-05-21T11:22:41.283Z,74.07
2023-05-21T11:25:08.721Z,72.16
2023-05-21T11:27:41.146Z,73.73
2023-05-21T11:30:20.170Z,72.85
2023-05-21T11:33:10.982Z,73.67
2023-05-21T11:35:50.394Z,74.17
2023-05-21T11:38:18.572Z,70.50
2023-05-21T11:40:55.369Z,72.94
2023-05-21T11:43:22.804Z,70.88
2023-05-21T11:45:53.018Z,70.34
2023-05-21T11:48:22.584Z,71.37
2023-05-21T11:50:51.058Z,72.91
2023-05-21T11:53:18.094Z,73.40
2023-05-21T11:55:47.521Z,72.31
2023-05-21T11:58:16.742Z,73.51
2023-05-21T12:00:45.616Z,74.09
2023-05-21T12:03:14.807Z,74.35
2023-05-21T12:05:49.423Z,72.18
2023-05-21T12:08:25.725Z,70.62
2023-05-21T12:11:00.532Z,71.07
2023-05-21T12:13:28.416Z,71.77
2023-05-21T12:15:55.650Z,72.77
2023-05-21T12:18:22.863Z,72.06
2023-05-21T12:20:52.277Z,71.98
2023-05-21T12:23:28.522Z,71.07
2023-05-21T12:25:56.466Z,72.63
2023-05-21T12:28:24.989Z,73.34
2023-05-21T12:30:53.799Z,73.19
2023-05-21T12:33:23.129Z,70.22
2023-05-21T12:35:52.725Z,70.89
2023-05-21T12:38:20.077Z,72.21
2023-05-21T12:40:47.811Z,70.76
2023-05-21T12:43:15.006Z,71.16
2023-05-21T12:45:43.730Z,73.39
2023-05-21T12:48:12.213Z,72.54
2023-05-21T12:50:41.153Z,71.27
2023-05-21T12:53:10.270Z,70.91
2023-05-21T12:55:40.894Z,72.44
2023-05-21T12:58:13.811Z,71.48
2023-05-21T13:00:43.171Z,72.76
2023-05-21T13:03:10.297Z,71.64
2023-05-21T13:05:41.616Z,73.87
2023-05-21T13:08:10.790Z,73.71
2023-05-21T13:10:38.365Z,73.87
2023-05-21T13:13:05.694Z,73.52
2023-05-21T13:15:33.268Z,70.29
2023-05-21T13:18:01.642Z,72.09
2023-05-21T13:20:29.647Z,73.02
2023-05-21T13:22:56.802Z,69.80
2023-05-21T13:25:28.816Z,71.05
2023-05-21T13:27:58.409Z,72.13
2023-05-21T13:30:25.596Z,71.45
2023-05-21T13:32:52.852Z,69.42
2023-05-21T13:35:20.083Z,70.11
2023-05-21T13:37:47.244Z,71.10
2023-05-21T13:40:15.836Z,71.79
2023-05-21T13:42:44.256Z,72.07
2023-05-21T13:45:13.141Z,70.75
2023-05-21T13:47:40.943Z,71.03
2023-05-21T13:50:09.430Z,72.63
2023-05-21T13:52:37.179Z,72.13
2023-05-21T13:55:04.683Z,71.06
2023-05-21T13:57:31.862Z,72.16
2023-05-21T14:00:00.196Z,70.48
2023-05-21T14:02:27.635Z,71.65
2023-05-21T14:04:54.812Z,73.05
2023-05-21T14:07:22.347Z,72.89
2023-05-21T14:09:49.626Z,72.62
2023-05-21T14:12:17.412Z,72.32
2023-05-21T14:14:44.960Z,70.33
2023-05-21T14:17:12.251Z,71.03
2023-05-21T14:19:39.834Z,69.47
2023-05-21T14:22:07.097Z,69.91
2023-05-21T14:24:34.152Z,68.71
2023-05-21T14:27:01.360Z,69.04
2023-05-21T14:29:28.428Z,69.18
2023-05-21T14:31:55.727Z,69.76
2023-05-21T14:34:22.968Z,70.38
2023-05-21T14:36:49.988Z,69.59
2023-05-21T14:39:17.521Z,69.88
2023-05-21T14:41:44.694Z,69.22
2023-05-21T14:44:12.608Z,69.46
2023-05-21T14:46:39.959Z,69.20
2023-05-21T14:49:06.926Z,69.01
2023-05-21T14:51:34.041Z,69.86
2023-05-21T14:54:01.302Z,70.69
2023-05-21T14:56:28.402Z,69.53
2023-05-21T14:58:56.538Z,69.03
2023-05-21T15:01:23.879Z,67.74
2023-05-21T15:03:57.004Z,68.36
2023-05-21T15:06:24.581Z,69.05
2023-05-21T15:08:51.755Z,69.54
2023-05-21T15:11:18.824Z,70.51
2023-05-21T15:13:46.691Z,70.76
2023-05-21T15:16:13.909Z,70.76
2023-05-21T15:18:41.011Z,69.41
2023-05-21T15:21:08.322Z,69.18
2023-05-21T15:23:35.436Z,69.22
2023-05-21T15:26:02.577Z,69.37
2023-05-21T15:28:29.717Z,69.50
2023-05-21T15:30:56.878Z,69.64
2023-05-21T15:33:23.985Z,68.10
2023-05-21T15:35:51.140Z,67.54
2023-05-21T15:38:18.269Z,69.44
2023-05-21T15:40:45.316Z,66.79
2023-05-21T15:43:12.257Z,67.42
2023-05-21T15:45:39.755Z,67.16
2023-05-21T15:48:13.419Z,67.57
2023-05-21T15:50:40.665Z,68.30
2023-05-21T15:53:07.722Z,69.06
2023-05-21T15:55:35.169Z,68.58
2023-05-21T15:58:03.804Z,67.75
2023-05-21T16:00:30.875Z,67.86
2023-05-21T16:02:58.018Z,67.91
2023-05-21T16:05:25.957Z,68.11
2023-05-21T16:07:53.219Z,69.26
2023-05-21T16:10:21.654Z,68.65
2023-05-21T16:12:48.843Z,68.71
2023-05-21T16:15:16.136Z,68.33
2023-05-21T16:17:43.270Z,65.53
2023-05-21T16:20:10.862Z,66.54
2023-05-21T16:22:38.027Z,66.95
2023-05-21T16:25:05.688Z,67.62
2023-05-21T16:27:32.817Z,67.80
2023-05-21T16:30:00.017Z,65.15
2023-05-21T16:32:28.613Z,65.69
2023-05-21T16:34:55.852Z,66.93
2023-05-21T16:37:22.958Z,67.85
2023-05-21T16:39:50.235Z,67.76
2023-05-21T16:42:17.463Z,67.54
2023-05-21T16:44:44.951Z,67.58
2023-05-21T16:47:12.123Z,67.15
2023-05-21T16:49:41.495Z,67.77
2023-05-21T16:52:09.494Z,67.83
2023-05-21T16:54:36.582Z,67.95
2023-05-21T16:57:03.782Z,66.61
2023-05-21T16:59:38.428Z,66.33
2023-05-21T17:02:05.764Z,67.76
2023-05-21T17:04:32.850Z,68.38
2023-05-21T17:06:59.972Z,69.23
2023-05-21T17:09:27.113Z,69.08
2023-05-21T17:11:54.314Z,69.13
2023-05-21T17:14:33.225Z,68.86
2023-05-21T17:17:01.398Z,68.87
2023-05-21T17:19:28.748Z,69.53
2023-05-21T17:21:56.540Z,69.49
2023-05-21T17:24:23.743Z,70.58
2023-05-21T17:26:50.974Z,70.39
2023-05-21T17:29:18.768Z,70.68
2023-05-21T17:31:45.939Z,71.16
2023-05-21T17:34:13.151Z,70.14
2023-05-21T17:36:40.130Z,70.23
2023-05-21T17:39:07.182Z,69.75
2023-05-21T17:41:34.417Z,69.39
2023-05-21T17:44:01.507Z,69.70
2023-05-21T17:46:28.577Z,69.83
2023-05-21T17:48:55.766Z,70.10
2023-05-21T17:51:22.864Z,69.90
2023-05-21T17:53:50.503Z,69.20
2023-05-21T17:56:17.516Z,68.73
2023-05-21T17:58:44.533Z,68.92
2023-05-21T18:01:11.941Z,68.96
2023-05-21T18:03:39.315Z,68.87
2023-05-21T18:06:08.194Z,69.09
2023-05-21T18:08:36.482Z,69.15
2023-05-21T18:11:03.854Z,69.24
2023-05-21T18:13:31.203Z,69.21
2023-05-21T18:15:59.264Z,69.47
2023-05-21T18:18:26.396Z,69.38
2023-05-21T18:20:53.461Z,68.67
2023-05-21T18:23:20.936Z,69.14
2023-05-21T18:25:48.176Z,69.37
2023-05-21T18:28:15.215Z,69.63
2023-05-21T18:30:42.449Z,69.90
2023-05-21T18:33:09.629Z,69.77
2023-05-21T18:35:36.764Z,69.11
2023-05-21T18:38:04.388Z,69.01
2023-05-21T18:40:33.335Z,69.47
2023-05-21T18:43:00.849Z,69.10
2023-05-21T18:45:28.106Z,69.44
2023-05-21T18:47:56.191Z,69.74
2023-05-21T18:50:23.250Z,69.74
2023-05-21T18:52:53.960Z,69.72
2023-05-21T18:55:21.184Z,70.16
2023-05-21T18:57:48.682Z,70.27
2023-05-21T19:00:16.082Z,70.48
2023-05-21T19:02:44.335Z,70.62
2023-05-21T19:05:12.018Z,70.46
2023-05-21T19:07:41.357Z,69.98
2023-05-21T19:10:09.341Z,69.48
2023-05-21T19:12:36.520Z,70.27
2023-05-21T19:15:04.362Z,70.93
2023-05-21T19:17:31.696Z,70.50
2023-05-21T19:19:58.944Z,71.17
2023-05-21T19:22:27.199Z,71.51
2023-05-21T19:24:54.570Z,71.96
2023-05-21T19:27:22.125Z,72.12
2023-05-21T19:29:49.242Z,70.73
2023-05-21T19:32:16.905Z,72.31
2023-05-21T19:34:43.954Z,72.71
2023-05-21T19:37:11.003Z,74.05
2023-05-21T19:39:39.512Z,73.88
2023-05-21T19:42:07.812Z,73.76
2023-05-21T19:44:34.983Z,74.22
2023-05-21T19:47:03.447Z,74.51
2023-05-21T19:49:30.780Z,74.01
2023-05-21T19:51:58.435Z,73.47
2023-05-21T19:54:25.956Z,73.74
2023-05-21T19:56:53.107Z,73.60
2023-05-21T19:59:20.238Z,73.70
2023-05-21T20:01:47.217Z,73.84
2023-05-21T20:04:14.459Z,73.41
2023-05-21T20:06:41.680Z,73.50
2023-05-21T20:09:09.035Z,74.32
2023-05-21T20:11:36.379Z,73.45
2023-05-21T20:14:04.491Z,73.23
2023-05-21T20:16:31.643Z,72.75
2023-05-21T20:19:01.136Z,73.10
2023-05-21T20:21:30.497Z,74.33
2023-05-21T20:23:57.528Z,73.26
2023-05-21T20:26:26.230Z,73.06
2023-05-21T20:28:53.749Z,73.46
2023-05-21T20:31:22.023Z,75.06
2023-05-21T20:33:50.799Z,75.27
2023-05-21T20:36:18.026Z,75.51
2023-05-21T20:38:45.812Z,75.00
2023-05-21T20:41:17.075Z,75.13
2023-05-21T20:43:45.489Z,76.62
2023-05-21T20:46:12.595Z,76.10
2023-05-21T20:48:39.714Z,75.83
2023-05-21T20:51:06.963Z,76.15
2023-05-21T20:53:34.079Z,76.39
2023-05-21T20:56:01.799Z,76.42
2023-05-21T20:58:28.957Z,76.33
2023-05-21T21:00:56.042Z,76.40
2023-05-21T21:03:23.285Z,76.32
2023-05-21T21:05:50.875Z,75.61
2023-05-21T21:08:17.872Z,75.84
2023-05-21T21:10:47.204Z,76.33
2023-05-21T21:13:14.970Z,76.54
2023-05-21T21:15:43.993Z,76.40
2023-05-21T21:18:12.740Z,75.71
2023-05-21T21:20:41.446Z,76.71
2023-05-21T21:23:08.805Z,77.47
2023-05-21T21:25:36.142Z,78.02
2023-05-21T21:28:03.247Z,78.03
2023-05-21T21:30:31.272Z,77.03
2023-05-21T21:32:58.407Z,78.21
2023-05-21T21:35:25.685Z,77.82
2023-05-21T21:37:53.001Z,78.20
2023-05-21T21:40:20.065Z,78.07
2023-05-21T21:42:47.210Z,77.45
2023-05-21T21:45:14.225Z,77.92
2023-05-21T21:47:41.433Z,77.14
2023-05-21T21:50:08.805Z,76.81
2023-05-21T21:52:40.259Z,79.00
2023-05-21T21:55:12.640Z,80.27
2023-05-21T21:58:04.933Z,80.61
2023-05-21T22:00:32.169Z,80.52
2023-05-21T22:02:59.784Z,80.37
2023-05-21T22:05:26.913Z,80.59
2023-05-21T22:07:54.041Z,80.56
2023-05-21T22:10:21.438Z,80.14
2023-05-21T22:12:48.436Z,79.65
2023-05-21T22:15:23.057Z,78.81
2023-05-21T22:17:50.427Z,79.18
2023-05-21T22:20:18.410Z,79.61
2023-05-21T22:22:46.335Z,80.04
2023-05-21T22:25:13.897Z,79.38
2023-05-21T22:27:40.998Z,78.64
2023-05-21T22:30:08.729Z,81.08
2023-05-21T22:32:35.839Z,80.50
2023-05-21T22:35:02.855Z,78.09
2023-05-21T22:37:30.131Z,79.12
2023-05-21T22:40:02.555Z,80.00
2023-05-21T22:42:29.561Z,80.26
2023-05-21T22:44:56.792Z,79.63
2023-05-21T22:47:24.373Z,79.27
2023-05-21T22:49:54.167Z,79.67
2023-05-21T22:52:24.176Z,79.23
2023-05-21T22:54:54.785Z,77.95
2023-05-21T22:57:22.149Z,77.85
2023-05-21T22:59:49.451Z,78.45
2023-05-21T23:02:16.717Z,78.71
2023-05-21T23:04:44.718Z,76.93
2023-05-21T23:07:12.366Z,76.71
2023-05-21T23:09:39.832Z,75.46
2023-05-21T23:12:07.560Z,75.74
2023-05-21T23:14:37.664Z,75.22
2023-05-21T23:17:05.836Z,75.25
2023-05-21T23:19:33.104Z,75.13
2023-05-21T23:22:00.682Z,74.23
2023-05-21T23:24:29.659Z,74.83
2023-05-21T23:27:02.271Z,74.64
2023-05-21T23:29:30.544Z,74.87
2023-05-21T23:31:58.112Z,74.52
2023-05-21T23:34:25.909Z,75.56
2023-05-21T23:36:53.121Z,76.19
2023-05-21T23:39:20.242Z,76.20
2023-05-21T23:41:47.461Z,75.78
2023-05-21T23:44:15.519Z,76.35
2023-05-21T23:46:45.944Z,77.28
2023-05-21T23:49:13.001Z,74.46
2023-05-21T23:51:40.086Z,74.54
2023-05-21T23:54:08.266Z,74.41
2023-05-21T23:56:35.394Z,74.33
2023-05-21T23:59:02.515Z,74.83
